sensor_id;sensor_type;location;lat;lon;timestamp;P1;P2;P0
74440;PMS7003;62870;54.692;25.284;2022-08-20T00:03:03;11.8;11.6;9
74440;PMS7003;62870;54.692;25.284;2022-08-20T00:08:07;11.6;11.2;8.2
74440;PMS7003;62870;54.692;25.284;2022-08-20T00:13:23;11.2;10;7.8
74440;PMS7003;62870;54.692;25.284;2022-08-20T00:18:29;12;10.8;8.4
74440;PMS7003;62870;54.692;25.284;2022-08-20T00:23:09;12.2;11.6;8.6
74440;PMS7003;62870;54.692;25.284;2022-08-20T00:28:01;11.4;11;8.8
74440;PMS7003;62870;54.692;25.284;2022-08-20T00:33:09;10.6;10.2;8
74440;PMS7003;62870;54.692;25.284;2022-08-20T00:38:01;10.2;10;8.2
74440;PMS7003;62870;54.692;25.284;2022-08-20T00:42:52;11.8;11;8.8
74440;PMS7003;62870;54.692;25.284;2022-08-20T00:48:13;9.8;9.4;7.8
74440;PMS7003;62870;54.692;25.284;2022-08-20T00:53:09;10.2;10;8.2
74440;PMS7003;62870;54.692;25.284;2022-08-20T00:58:27;11.4;10;8
74440;PMS7003;62870;54.692;25.284;2022-08-20T01:03:06;10.5;10;8
74440;PMS7003;62870;54.692;25.284;2022-08-20T01:08:27;10.8;10;8
74440;PMS7003;62870;54.692;25.284;2022-08-20T01:13:29;11.2;10.6;8.2
74440;PMS7003;62870;54.692;25.284;2022-08-20T01:18:12;11.8;11;8.4
74440;PMS7003;62870;54.692;25.284;2022-08-20T01:23:03;11.6;11;9.4
74440;PMS7003;62870;54.692;25.284;2022-08-20T01:27:49;12.4;11.6;8.8
74440;PMS7003;62870;54.692;25.284;2022-08-20T01:33:25;12.4;10.6;8.4
74440;PMS7003;62870;54.692;25.284;2022-08-20T01:38:21;11.4;11.2;8.8
74440;PMS7003;62870;54.692;25.284;2022-08-20T01:43:13;11.8;10.8;8.6
74440;PMS7003;62870;54.692;25.284;2022-08-20T01:48:21;13.2;12.4;9
74440;PMS7003;62870;54.692;25.284;2022-08-20T01:53:17;11.6;10.8;8.2
74440;PMS7003;62870;54.692;25.284;2022-08-20T01:58:12;11.8;11.2;9.2
74440;PMS7003;62870;54.692;25.284;2022-08-20T02:03:23;12;11.5;9.5
74440;PMS7003;62870;54.692;25.284;2022-08-20T02:08:31;12.2;11.2;9
74440;PMS7003;62870;54.692;25.284;2022-08-20T02:12:51;13.8;12.8;9.8
74440;PMS7003;62870;54.692;25.284;2022-08-20T02:17:51;12.4;12.2;10.2
74440;PMS7003;62870;54.692;25.284;2022-08-20T02:23:33;13.4;12;9.4
74440;PMS7003;62870;54.692;25.284;2022-08-20T02:28:35;12;11.6;9.4
74440;PMS7003;62870;54.692;25.284;2022-08-20T02:33:29;12.8;12.2;9.6
74440;PMS7003;62870;54.692;25.284;2022-08-20T02:38:11;13.6;12;9.8
74440;PMS7003;62870;54.692;25.284;2022-08-20T02:43:31;11.6;11.6;9.6
74440;PMS7003;62870;54.692;25.284;2022-08-20T02:48:33;13.8;13.6;10
74440;PMS7003;62870;54.692;25.284;2022-08-20T02:53:11;13;12;9.8
74440;PMS7003;62870;54.692;25.284;2022-08-20T02:58:11;13.6;12.8;9.8
74440;PMS7003;62870;54.692;25.284;2022-08-20T03:02:51;13.3;11.5;9.5
74440;PMS7003;62870;54.692;25.284;2022-08-20T03:08:08;13.8;12.2;9.2
74440;PMS7003;62870;54.692;25.284;2022-08-20T03:13:16;12.4;12;9.4
74440;PMS7003;62870;54.692;25.284;2022-08-20T03:18:03;20.8;18.8;13.2
74440;PMS7003;62870;54.692;25.284;2022-08-20T03:23:34;13.4;13;9.8
74440;PMS7003;62870;54.692;25.284;2022-08-20T03:28:18;12.8;12.2;9.2
74440;PMS7003;62870;54.692;25.284;2022-08-20T03:33:07;13;11.8;9.2
74440;PMS7003;62870;54.692;25.284;2022-08-20T03:38:31;13.8;12.6;10.2
74440;PMS7003;62870;54.692;25.284;2022-08-20T03:43:17;14.6;13.6;9.6
74440;PMS7003;62870;54.692;25.284;2022-08-20T03:48:33;13.8;12.4;9.8
74440;PMS7003;62870;54.692;25.284;2022-08-20T03:53:02;14.6;13;10.2
74440;PMS7003;62870;54.692;25.284;2022-08-20T03:58:04;14.2;13.2;9.6
74440;PMS7003;62870;54.692;25.284;2022-08-20T04:03:29;11.8;11.5;8.8
74440;PMS7003;62870;54.692;25.284;2022-08-20T04:08:24;12.6;11.8;9.2
74440;PMS7003;62870;54.692;25.284;2022-08-20T04:13:05;12.4;11.6;9.6
74440;PMS7003;62870;54.692;25.284;2022-08-20T04:18:12;12.2;12;9.6
74440;PMS7003;62870;54.692;25.284;2022-08-20T04:23:21;15;13.4;9.8
74440;PMS7003;62870;54.692;25.284;2022-08-20T04:28:15;12.6;12;9.8
74440;PMS7003;62870;54.692;25.284;2022-08-20T04:33:24;12.4;11.8;9.6
74440;PMS7003;62870;54.692;25.284;2022-08-20T04:38:33;14.8;13.8;11
74440;PMS7003;62870;54.692;25.284;2022-08-20T04:43:03;15.6;14.2;10
74440;PMS7003;62870;54.692;25.284;2022-08-20T04:48:11;14.2;13.8;10.8
74440;PMS7003;62870;54.692;25.284;2022-08-20T04:53:31;16.8;15.2;10.8
74440;PMS7003;62870;54.692;25.284;2022-08-20T04:58:34;15.6;13.8;10.4
74440;PMS7003;62870;54.692;25.284;2022-08-20T05:03:32;14.5;13.8;10.5
74440;PMS7003;62870;54.692;25.284;2022-08-20T05:08:12;15.4;14.2;10.6
74440;PMS7003;62870;54.692;25.284;2022-08-20T05:13:31;15.2;14.4;10.8
74440;PMS7003;62870;54.692;25.284;2022-08-20T05:18:34;14.6;13.4;10.4
74440;PMS7003;62870;54.692;25.284;2022-08-20T05:23:12;15;14.4;11
74440;PMS7003;62870;54.692;25.284;2022-08-20T05:28:18;14.8;14.6;10.8
74440;PMS7003;62870;54.692;25.284;2022-08-20T05:33:02;16.4;15.2;11.4
74440;PMS7003;62870;54.692;25.284;2022-08-20T05:38:12;14.2;14.2;10.6
74440;PMS7003;62870;54.692;25.284;2022-08-20T05:43:15;17;16.4;12.4
74440;PMS7003;62870;54.692;25.284;2022-08-20T05:48:19;15.2;15;11.2
74440;PMS7003;62870;54.692;25.284;2022-08-20T05:53:17;14.2;13;10.6
74440;PMS7003;62870;54.692;25.284;2022-08-20T05:58:00;15.6;14.2;10.6
74440;PMS7003;62870;54.692;25.284;2022-08-20T06:03:29;16.2;15.4;11.4
74440;PMS7003;62870;54.692;25.284;2022-08-20T06:07:52;14;13.8;11
74440;PMS7003;62870;54.692;25.284;2022-08-20T06:13:33;11.8;11.4;9
74440;PMS7003;62870;54.692;25.284;2022-08-20T06:18:33;14.4;13.6;10.8
74440;PMS7003;62870;54.692;25.284;2022-08-20T06:22:51;14.2;13.2;10.6
74440;PMS7003;62870;54.692;25.284;2022-08-20T06:27:51;14.2;12.8;10.6
74440;PMS7003;62870;54.692;25.284;2022-08-20T06:33:03;13.4;12.8;9.8
74440;PMS7003;62870;54.692;25.284;2022-08-20T06:38:31;13.8;13.2;9.4
74440;PMS7003;62870;54.692;25.284;2022-08-20T06:43:23;12.8;12;10
74440;PMS7003;62870;54.692;25.284;2022-08-20T06:48:23;16.4;15;11.4
74440;PMS7003;62870;54.692;25.284;2022-08-20T06:53:21;12.2;11.4;8.6
74440;PMS7003;62870;54.692;25.284;2022-08-20T06:58:19;14.6;12.8;9
74440;PMS7003;62870;54.692;25.284;2022-08-20T07:02:51;12.8;12.4;9.6
74440;PMS7003;62870;54.692;25.284;2022-08-20T07:08:14;9.3;9;7
74440;PMS7003;62870;54.692;25.284;2022-08-20T07:12:51;11.4;10.6;8
74440;PMS7003;62870;54.692;25.284;2022-08-20T07:17:53;8.4;8.2;7
74440;PMS7003;62870;54.692;25.284;2022-08-20T07:23:03;10.4;9.6;6.8
74440;PMS7003;62870;54.692;25.284;2022-08-20T07:28:31;11.4;11;8.6
74440;PMS7003;62870;54.692;25.284;2022-08-20T07:33:21;10.6;9.4;7.6
74440;PMS7003;62870;54.692;25.284;2022-08-20T07:38:13;10.8;9.8;7.6
74440;PMS7003;62870;54.692;25.284;2022-08-20T07:43:09;10;9.2;7.2
74440;PMS7003;62870;54.692;25.284;2022-08-20T07:48:24;10;9.8;7.8
74440;PMS7003;62870;54.692;25.284;2022-08-20T07:53:34;8.6;8.4;6.6
74440;PMS7003;62870;54.692;25.284;2022-08-20T07:58:14;7.8;7.8;6.2
74440;PMS7003;62870;54.692;25.284;2022-08-20T08:03:14;7.6;7.4;6
74440;PMS7003;62870;54.692;25.284;2022-08-20T08:08:11;6.8;6.8;6
74440;PMS7003;62870;54.692;25.284;2022-08-20T08:13:11;7;7;5.2
74440;PMS7003;62870;54.692;25.284;2022-08-20T08:18:18;8;7.8;5.8
74440;PMS7003;62870;54.692;25.284;2022-08-20T08:23:15;8;7.8;6
74440;PMS7003;62870;54.692;25.284;2022-08-20T08:28:19;6.8;6.2;5
74440;PMS7003;62870;54.692;25.284;2022-08-20T08:33:30;8;7.4;5.4
74440;PMS7003;62870;54.692;25.284;2022-08-20T08:38:11;7.4;6.6;5.2
74440;PMS7003;62870;54.692;25.284;2022-08-20T08:43:35;5.2;5;3.8
74440;PMS7003;62870;54.692;25.284;2022-08-20T08:48:36;6.8;6.6;5.4
74440;PMS7003;62870;54.692;25.284;2022-08-20T08:53:03;5.2;5.2;4
74440;PMS7003;62870;54.692;25.284;2022-08-20T08:57:53;6.6;6.6;5
74440;PMS7003;62870;54.692;25.284;2022-08-20T09:03:03;6.6;6;4
74440;PMS7003;62870;54.692;25.284;2022-08-20T09:08:36;7.8;7.5;5.5
74440;PMS7003;62870;54.692;25.284;2022-08-20T09:13:23;7.2;6.6;5.6
74440;PMS7003;62870;54.692;25.284;2022-08-20T09:18:33;6.2;6.2;4.8
74440;PMS7003;62870;54.692;25.284;2022-08-20T09:23:23;6.8;6.2;5.2
74440;PMS7003;62870;54.692;25.284;2022-08-20T09:28:21;6.6;6;4.8
74440;PMS7003;62870;54.692;25.284;2022-08-20T09:33:00;7.6;6.6;5.2
74440;PMS7003;62870;54.692;25.284;2022-08-20T09:38:26;6.2;5.6;4.2
74440;PMS7003;62870;54.692;25.284;2022-08-20T09:43:04;4.6;4.6;3.8
74440;PMS7003;62870;54.692;25.284;2022-08-20T09:48:13;5.6;5.4;4.4
74440;PMS7003;62870;54.692;25.284;2022-08-20T09:53:04;6.6;6;4.8
74440;PMS7003;62870;54.692;25.284;2022-08-20T09:58:37;7;6.6;5
74440;PMS7003;62870;54.692;25.284;2022-08-20T10:03:19;6.3;6;5
74440;PMS7003;62870;54.692;25.284;2022-08-20T10:08:12;6.8;6;4.5
74440;PMS7003;62870;54.692;25.284;2022-08-20T10:13:13;5.8;5.6;4.4
74440;PMS7003;62870;54.692;25.284;2022-08-20T10:18:36;5.2;5;4
74440;PMS7003;62870;54.692;25.284;2022-08-20T10:23:31;5.6;5.2;4.6
74440;PMS7003;62870;54.692;25.284;2022-08-20T10:28:13;7.2;6.6;5.2
74440;PMS7003;62870;54.692;25.284;2022-08-20T10:33:34;6;5.8;4.6
74440;PMS7003;62870;54.692;25.284;2022-08-20T10:37:51;5.4;5.2;4.6
74440;PMS7003;62870;54.692;25.284;2022-08-20T10:43:03;6.6;6.4;5
74440;PMS7003;62870;54.692;25.284;2022-08-20T10:48:15;6.2;6;4.8
74440;PMS7003;62870;54.692;25.284;2022-08-20T10:53:01;6.6;6.4;4.8
74440;PMS7003;62870;54.692;25.284;2022-08-20T10:58:35;6.8;5.8;4.6
74440;PMS7003;62870;54.692;25.284;2022-08-20T11:03:18;6.8;6.6;5.2
74440;PMS7003;62870;54.692;25.284;2022-08-20T11:08:13;6.5;5.8;4.8
74440;PMS7003;62870;54.692;25.284;2022-08-20T11:13:35;7.4;6.8;5.2
74440;PMS7003;62870;54.692;25.284;2022-08-20T11:18:21;5.8;5.4;4.4
74440;PMS7003;62870;54.692;25.284;2022-08-20T11:23:35;6;5.8;4.4
74440;PMS7003;62870;54.692;25.284;2022-08-20T11:27:52;6;5.6;4.6
74440;PMS7003;62870;54.692;25.284;2022-08-20T11:33:04;5.8;5.8;4.4
74440;PMS7003;62870;54.692;25.284;2022-08-20T11:38:36;6.2;5.4;4.4
74440;PMS7003;62870;54.692;25.284;2022-08-20T11:43:37;6.2;6;4.8
74440;PMS7003;62870;54.692;25.284;2022-08-20T11:48:02;6.6;6.4;4.6
74440;PMS7003;62870;54.692;25.284;2022-08-20T11:53:25;6.2;5.6;4.4
74440;PMS7003;62870;54.692;25.284;2022-08-20T11:58:22;6;5.8;4.8
74440;PMS7003;62870;54.692;25.284;2022-08-20T12:03:24;5.8;5;3.8
74440;PMS7003;62870;54.692;25.284;2022-08-20T12:08:22;5.8;4.8;3.8
74440;PMS7003;62870;54.692;25.284;2022-08-20T12:13:32;5.5;4.8;4.3
74440;PMS7003;62870;54.692;25.284;2022-08-20T12:18:07;5.4;5.4;3.8
74440;PMS7003;62870;54.692;25.284;2022-08-20T12:23:03;5.8;5.4;4
74440;PMS7003;62870;54.692;25.284;2022-08-20T12:28:33;5.6;5.2;4.4
74440;PMS7003;62870;54.692;25.284;2022-08-20T12:33:34;6;5.6;4.6
74440;PMS7003;62870;54.692;25.284;2022-08-20T12:38:35;5.6;5.2;4
74440;PMS7003;62870;54.692;25.284;2022-08-20T12:43:11;5;4.8;4
74440;PMS7003;62870;54.692;25.284;2022-08-20T12:48:33;6.2;5.6;4.4
74440;PMS7003;62870;54.692;25.284;2022-08-20T12:53:36;4.8;4.8;4.2
74440;PMS7003;62870;54.692;25.284;2022-08-20T12:58:14;6;6;4.2
74440;PMS7003;62870;54.692;25.284;2022-08-20T13:03:28;5.8;5.8;4.4
74440;PMS7003;62870;54.692;25.284;2022-08-20T13:08:12;4.4;4.2;3.4
74440;PMS7003;62870;54.692;25.284;2022-08-20T13:13:13;4.6;4;3.6
74440;PMS7003;62870;54.692;25.284;2022-08-20T13:17:52;4;3.4;2.8
74440;PMS7003;62870;54.692;25.284;2022-08-20T13:23:02;3;2.8;2.2
74440;PMS7003;62870;54.692;25.284;2022-08-20T13:28:38;5.2;4.4;3.2
74440;PMS7003;62870;54.692;25.284;2022-08-20T13:33:18;5.2;4.4;3.4
74440;PMS7003;62870;54.692;25.284;2022-08-20T13:37:58;5.8;5.4;4
74440;PMS7003;62870;54.692;25.284;2022-08-20T13:43:34;5.5;4.5;4
74440;PMS7003;62870;54.692;25.284;2022-08-20T13:48:20;6.2;4.8;3.8
74440;PMS7003;62870;54.692;25.284;2022-08-20T13:53:34;5.4;4.8;3.8
74440;PMS7003;62870;54.692;25.284;2022-08-20T13:57:52;5;4.8;4
74440;PMS7003;62870;54.692;25.284;2022-08-20T14:02:52;5;4.6;3.4
74440;PMS7003;62870;54.692;25.284;2022-08-20T14:08:34;7;6.6;5.2
74440;PMS7003;62870;54.692;25.284;2022-08-20T14:13:24;7;6.8;5
74440;PMS7003;62870;54.692;25.284;2022-08-20T14:18:16;7.8;6.6;5.2
74440;PMS7003;62870;54.692;25.284;2022-08-20T14:23:24;7.4;6.8;5.2
74440;PMS7003;62870;54.692;25.284;2022-08-20T14:28:36;8;7.2;5.6
74440;PMS7003;62870;54.692;25.284;2022-08-20T14:33:21;6.6;6;4.8
74440;PMS7003;62870;54.692;25.284;2022-08-20T14:38:14;6.4;6.2;5
74440;PMS7003;62870;54.692;25.284;2022-08-20T14:43:24;5.5;5.5;4.3
74440;PMS7003;62870;54.692;25.284;2022-08-20T14:47:53;6.6;6;5.4
74440;PMS7003;62870;54.692;25.284;2022-08-20T14:53:04;7.8;6.4;4.8
74440;PMS7003;62870;54.692;25.284;2022-08-20T14:57:52;6.4;5.8;4.6
74440;PMS7003;62870;54.692;25.284;2022-08-20T15:03:32;6.4;5.8;4.8
74440;PMS7003;62870;54.692;25.284;2022-08-20T15:08:26;6.8;6.6;5.4
74440;PMS7003;62870;54.692;25.284;2022-08-20T15:13:14;9.8;9;6.2
74440;PMS7003;62870;54.692;25.284;2022-08-20T15:18:14;8.6;8;6.6
74440;PMS7003;62870;54.692;25.284;2022-08-20T15:23:26;8;7.2;5.4
74440;PMS7003;62870;54.692;25.284;2022-08-20T15:28:34;9;7.8;6
74440;PMS7003;62870;54.692;25.284;2022-08-20T15:33:10;9.2;8;6
74440;PMS7003;62870;54.692;25.284;2022-08-20T15:38:18;8.8;8.2;6
74440;PMS7003;62870;54.692;25.284;2022-08-20T15:42:54;10.2;9.8;6.4
74440;PMS7003;62870;54.692;25.284;2022-08-20T15:48:17;10.8;9.8;7.8
74440;PMS7003;62870;54.692;25.284;2022-08-20T15:53:15;9.8;9.6;7.4
74440;PMS7003;62870;54.692;25.284;2022-08-20T15:58:09;10;9.8;7.4
74440;PMS7003;62870;54.692;25.284;2022-08-20T16:03:25;10.8;10;7.4
74440;PMS7003;62870;54.692;25.284;2022-08-20T16:13:47;11.2;10.6;8.2
74440;PMS7003;62870;54.692;25.284;2022-08-20T16:18:36;12;11.6;9
74440;PMS7003;62870;54.692;25.284;2022-08-20T16:23:38;12.8;12.2;9.2
74440;PMS7003;62870;54.692;25.284;2022-08-20T16:28:22;11.6;11.2;9.2
74440;PMS7003;62870;54.692;25.284;2022-08-20T16:32:57;12.4;11.2;8.4
74440;PMS7003;62870;54.692;25.284;2022-08-20T16:38:13;12.6;12.2;9
74440;PMS7003;62870;54.692;25.284;2022-08-20T16:43:42;12;12;8.2
74440;PMS7003;62870;54.692;25.284;2022-08-20T16:48:14;11.8;11;9
74440;PMS7003;62870;54.692;25.284;2022-08-20T16:53:19;12.8;12.2;9
74440;PMS7003;62870;54.692;25.284;2022-08-20T16:58:28;12.4;11.6;8.4
74440;PMS7003;62870;54.692;25.284;2022-08-20T17:03:25;12;11.2;8.4
74440;PMS7003;62870;54.692;25.284;2022-08-20T17:08:08;11;10.8;8
74440;PMS7003;62870;54.692;25.284;2022-08-20T17:13:29;12.8;11.8;9
74440;PMS7003;62870;54.692;25.284;2022-08-20T17:17:54;13;12.4;8.8
74440;PMS7003;62870;54.692;25.284;2022-08-20T17:23:22;12.6;11.6;8.6
74440;PMS7003;62870;54.692;25.284;2022-08-20T17:28:24;13.8;13;9.4
74440;PMS7003;62870;54.692;25.284;2022-08-20T17:33:35;13.6;11.8;8.4
74440;PMS7003;62870;54.692;25.284;2022-08-20T17:38:25;13.4;12.2;9.8
74440;PMS7003;62870;54.692;25.284;2022-08-20T17:42:56;13.8;12.2;8.8
74440;PMS7003;62870;54.692;25.284;2022-08-20T17:48:18;15.5;13.3;10.3
74440;PMS7003;62870;54.692;25.284;2022-08-20T17:53:28;14.2;13.6;9.8
74440;PMS7003;62870;54.692;25.284;2022-08-20T17:58:40;14.8;13;9.8
74440;PMS7003;62870;54.692;25.284;2022-08-20T18:03:05;14;13.4;10.2
74440;PMS7003;62870;54.692;25.284;2022-08-20T18:08:13;13;12.6;9.6
74440;PMS7003;62870;54.692;25.284;2022-08-20T18:13:29;14.4;13.4;9.6
74440;PMS7003;62870;54.692;25.284;2022-08-20T18:18:30;14.6;13.2;8.8
74440;PMS7003;62870;54.692;25.284;2022-08-20T18:23:05;15;13.6;9.4
74440;PMS7003;62870;54.692;25.284;2022-08-20T18:27:54;13.8;13;9.4
74440;PMS7003;62870;54.692;25.284;2022-08-20T18:33:36;13.6;13;10
74440;PMS7003;62870;54.692;25.284;2022-08-20T18:38:27;13.8;12.8;10
74440;PMS7003;62870;54.692;25.284;2022-08-20T18:43:30;15;14.4;10
74440;PMS7003;62870;54.692;25.284;2022-08-20T18:48:36;12.8;12;9.8
74440;PMS7003;62870;54.692;25.284;2022-08-20T18:53:28;14;12.2;9.2
74440;PMS7003;62870;54.692;25.284;2022-08-20T18:59:10;12.8;12.6;9.4
74440;PMS7003;62870;54.692;25.284;2022-08-20T19:02:58;11.6;11.2;8.4
74440;PMS7003;62870;54.692;25.284;2022-08-20T19:08:18;14.6;13.8;10.2
74440;PMS7003;62870;54.692;25.284;2022-08-20T19:18:31;13.6;12.6;9
74440;PMS7003;62870;54.692;25.284;2022-08-20T19:23:08;15.8;14.8;10.2
74440;PMS7003;62870;54.692;25.284;2022-08-20T19:28:39;14.4;13.2;10.2
74440;PMS7003;62870;54.692;25.284;2022-08-20T19:33:28;11.4;11;7.8
74440;PMS7003;62870;54.692;25.284;2022-08-20T19:38:14;14.2;13.2;9.2
74440;PMS7003;62870;54.692;25.284;2022-08-20T19:43:26;14.8;13;9.8
74440;PMS7003;62870;54.692;25.284;2022-08-20T19:48:41;14.5;13.3;10
74440;PMS7003;62870;54.692;25.284;2022-08-20T19:53:09;16.2;13.4;9.4
74440;PMS7003;62870;54.692;25.284;2022-08-20T19:58:10;14.8;14;9.6
74440;PMS7003;62870;54.692;25.284;2022-08-20T20:03:29;14;13;10
74440;PMS7003;62870;54.692;25.284;2022-08-20T20:09:07;15.6;15;11
74440;PMS7003;62870;54.692;25.284;2022-08-20T20:13:34;14.2;12.6;9.8
74440;PMS7003;62870;54.692;25.284;2022-08-20T20:18:14;14.8;13.6;10.4
74440;PMS7003;62870;54.692;25.284;2022-08-20T20:23:38;15.6;13.6;9.6
74440;PMS7003;62870;54.692;25.284;2022-08-20T20:28:52;13.6;12.4;9
74440;PMS7003;62870;54.692;25.284;2022-08-20T20:33:18;13.8;12.6;10
74440;PMS7003;62870;54.692;25.284;2022-08-20T20:38:28;14;13.8;10.2
74440;PMS7003;62870;54.692;25.284;2022-08-20T20:43:07;13.2;12.8;9
74440;PMS7003;62870;54.692;25.284;2022-08-20T20:47:54;15.4;14;9.6
74440;PMS7003;62870;54.692;25.284;2022-08-20T20:53:34;16;13.8;10.3
74440;PMS7003;62870;54.692;25.284;2022-08-20T20:58:06;15.8;15;10.8
74440;PMS7003;62870;54.692;25.284;2022-08-20T21:03:34;16.4;14.6;9.6
74440;PMS7003;62870;54.692;25.284;2022-08-20T21:08:22;15.8;14.6;10.4
74440;PMS7003;62870;54.692;25.284;2022-08-20T21:13:16;14;13.4;9.8
74440;PMS7003;62870;54.692;25.284;2022-08-20T21:18:36;14.8;13.8;10.2
74440;PMS7003;62870;54.692;25.284;2022-08-20T21:23:36;14.6;13.6;10
74440;PMS7003;62870;54.692;25.284;2022-08-20T21:28:36;13.8;12.4;9
74440;PMS7003;62870;54.692;25.284;2022-08-20T21:33:06;15.2;14.2;10.2
74440;PMS7003;62870;54.692;25.284;2022-08-20T21:38:06;13.8;12.6;9.6
74440;PMS7003;62870;54.692;25.284;2022-08-20T21:43:36;15.6;13.2;9.6
74440;PMS7003;62870;54.692;25.284;2022-08-20T21:48:28;14.4;14;10
74440;PMS7003;62870;54.692;25.284;2022-08-20T21:53:18;14.3;13.3;10.3
74440;PMS7003;62870;54.692;25.284;2022-08-20T21:58:24;14.4;13.4;9.6
74440;PMS7003;62870;54.692;25.284;2022-08-20T22:03:21;13;12.4;9.8
74440;PMS7003;62870;54.692;25.284;2022-08-20T22:08:15;15;13.8;10.2
74440;PMS7003;62870;54.692;25.284;2022-08-20T22:13:27;14.4;13;10.2
74440;PMS7003;62870;54.692;25.284;2022-08-20T22:18:34;14.8;13.6;10.2
74440;PMS7003;62870;54.692;25.284;2022-08-20T22:22:52;13.4;12.6;9.2
74440;PMS7003;62870;54.692;25.284;2022-08-20T22:28:14;14.4;13.2;10.2
74440;PMS7003;62870;54.692;25.284;2022-08-20T22:33:32;14.6;13.4;10.2
74440;PMS7003;62870;54.692;25.284;2022-08-20T22:38:30;12.6;11.4;8.8
74440;PMS7003;62870;54.692;25.284;2022-08-20T22:43:32;13.6;12.4;10.2
74440;PMS7003;62870;54.692;25.284;2022-08-20T22:48:20;14;13.8;10.2
74440;PMS7003;62870;54.692;25.284;2022-08-20T22:53:12;15;13.5;9.8
74440;PMS7003;62870;54.692;25.284;2022-08-20T22:58:24;15.4;12.6;9.6
74440;PMS7003;62870;54.692;25.284;2022-08-20T23:03:30;13;12.2;9.2
74440;PMS7003;62870;54.692;25.284;2022-08-20T23:08:14;15.8;14;10.4
74440;PMS7003;62870;54.692;25.284;2022-08-20T23:12:52;13.6;12.6;10
74440;PMS7003;62870;54.692;25.284;2022-08-20T23:18:05;15;13.4;10.2
74440;PMS7003;62870;54.692;25.284;2022-08-20T23:23:12;15.4;15;11.6
74440;PMS7003;62870;54.692;25.284;2022-08-20T23:28:16;15.6;14.6;11.2
74440;PMS7003;62870;54.692;25.284;2022-08-20T23:33:14;15.4;14.8;10.8
74440;PMS7003;62870;54.692;25.284;2022-08-20T23:38:18;14.8;13.8;10.8
74440;PMS7003;62870;54.692;25.284;2022-08-20T23:43:32;15.6;14.6;10.6
74440;PMS7003;62870;54.692;25.284;2022-08-20T23:48:12;16.2;14.8;11.4
74440;PMS7003;62870;54.692;25.284;2022-08-20T23:53:30;14.8;14.5;10
74440;PMS7003;62870;54.692;25.284;2022-08-20T23:58:32;16.6;14.8;11
